Decoded Metar for WBKK (KOTA KINABALU in MALAYSIA) (IATA:BKI) | Meteo·Mobile Aviation Weather
aviador You're here:

WBKK Decoded Metar

KOTA KINABALU in MALAYSIA
Report Time2019-08-24 15:30:00
UTC Time2019-08-24 15:54:27
Flight Rules vfr VFR
WindVRB at 03 kt
Visibility9999 m
Phenomena:N/A
Clouds:Few 014 Hf
Scattered 140 Hf
Broken 270 Hf
Expected CloudBase > 1,200 ft AGL from Temp-Dew spread
Ceiling27,000 ft
Temp28°C (ISA +13)
Dew Point25°C (84% RH)
Heat Index32.7°C
QNH1010 hPa
Density Alt2,024 ft
Elevation10 ft
Report Wrong Elevation
Raw Report
WBKK 241530Z VRB03KT 9999 FEW014 SCT140 BKN270 28/25 Q1010
NOSIG=

Extra information for WBKK:More info

Metar Taf Metar & Taf Last 4 Metars F.Rules Stats Wind Profile Meteogram Temp Stats Airport Information Weather charts Add Link Nearby VenuesMetar ALERT Operation Metar Decoded Social comments